Time;durP1;ratioP1;P1;durP2;ratioP2;P2;SDS_P1;SDS_P2;PMS_P1;PMS_P2;Temp;Humidity;BMP_temperature;BMP_pressure;BME280_temperature;BME280_humidity;BME280_pressure;Samples;Min_cycle;Max_cycle;Signal;HPM_P1;HPM_P2
2022/12/14 00:00:47;;;;;;;0.60;0.60;;;;;;;-2.65;87.08;98919.69;5085485;28;20459;-69
2022/12/14 00:03:14;;;;;;;0.70;0.70;;;;;;;-2.30;88.42;98908.53;5085255;28;20032;-68
2022/12/14 00:05:40;;;;;;;0.50;0.50;;;;;;;-1.84;89.92;98900.88;5085559;28;20054;-69
2022/12/14 00:08:05;;;;;;;0.70;0.70;;;;;;;-1.52;90.36;98890.38;5085319;28;20029;-70
2022/12/14 00:10:32;;;;;;;0.60;0.60;;;;;;;-1.19;91.07;98905.28;5085462;28;20047;-70
2022/12/14 00:12:58;;;;;;;0.60;0.60;;;;;;;-0.95;91.21;98901.38;5085528;28;20074;-70
2022/12/14 00:15:24;;;;;;;0.50;0.50;;;;;;;-0.77;91.56;98893.16;5084002;28;20024;-70
2022/12/14 00:17:49;;;;;;;0.70;0.70;;;;;;;-0.63;91.59;98898.44;5084160;28;20046;-70
2022/12/14 00:20:15;;;;;;;0.52;0.52;;;;;;;-0.45;91.43;98892.72;5084960;28;20029;-69
2022/12/14 00:22:40;;;;;;;0.52;0.52;;;;;;;-0.36;91.54;98883.44;5085078;28;20044;-70
2022/12/14 00:25:06;;;;;;;0.50;0.50;;;;;;;-0.26;91.35;98883.53;5084897;28;20070;-70
2022/12/14 00:27:31;;;;;;;0.60;0.60;;;;;;;-0.16;91.04;98883.66;5085182;28;20024;-73
2022/12/14 00:29:57;;;;;;;0.57;0.57;;;;;;;-0.11;91.05;98882.00;5085157;28;20468;-69
2022/12/14 00:32:23;;;;;;;0.50;0.50;;;;;;;-0.07;91.21;98880.34;5085080;28;20047;-71
2022/12/14 00:34:48;;;;;;;0.50;0.50;;;;;;;-0.01;90.78;98888.06;5084937;28;20016;-71
2022/12/14 00:37:13;;;;;;;0.50;0.50;;;;;;;0.05;90.58;98879.63;5085152;28;20025;-71
2022/12/14 00:39:39;;;;;;;0.60;0.60;;;;;;;0.08;90.55;98877.09;5085027;28;20025;-70
2022/12/14 00:42:04;;;;;;;0.60;0.60;;;;;;;0.11;90.45;98883.06;5083757;28;20078;-69
2022/12/14 00:44:30;;;;;;;0.68;0.68;;;;;;;0.14;90.23;98866.94;5084827;28;20088;-70
2022/12/14 00:46:55;;;;;;;0.73;0.73;;;;;;;0.17;89.99;98873.78;5084981;28;20080;-69
2022/12/14 00:49:21;;;;;;;0.60;0.60;;;;;;;0.17;90.33;98866.97;5084862;28;20020;-71
2022/12/14 00:51:46;;;;;;;1.92;1.83;;;;;;;0.12;89.99;98848.22;5084908;28;20048;-70
2022/12/14 00:54:11;;;;;;;0.60;0.60;;;;;;;0.23;89.95;98864.47;5083743;28;20039;-69
2022/12/14 00:56:37;;;;;;;0.57;0.57;;;;;;;0.24;89.93;98852.53;5084911;28;20084;-70
2022/12/14 00:59:02;;;;;;;0.50;0.50;;;;;;;0.27;89.92;98851.75;5084963;28;20040;-70
2022/12/14 01:01:29;;;;;;;0.50;0.50;;;;;;;0.28;89.94;98843.22;5084798;28;20020;-69
2022/12/14 01:04:15;;;;;;;0.50;0.50;;;;;;;0.29;89.92;98839.84;5084489;28;20024;-70
2022/12/14 01:06:40;;;;;;;0.70;0.70;;;;;;;0.31;89.70;98846.66;5084663;28;20057;-69
2022/12/14 01:09:05;;;;;;;0.50;0.50;;;;;;;0.36;89.78;98839.03;5083518;28;20057;-68
2022/12/14 01:11:31;;;;;;;0.60;0.60;;;;;;;0.37;89.69;98833.09;5084775;28;20025;-69
2022/12/14 01:13:56;;;;;;;0.57;0.57;;;;;;;0.40;89.53;98832.28;5084621;28;20399;-68
2022/12/14 01:16:21;;;;;;;0.60;0.60;;;;;;;0.40;89.54;98843.31;5084560;28;20035;-68
2022/12/14 01:18:47;;;;;;;0.60;0.60;;;;;;;0.42;89.40;98835.66;5084436;28;20050;-68
2022/12/14 01:21:15;;;;;;;0.55;0.55;;;;;;;0.42;89.30;98826.31;5084423;28;20060;-68
2022/12/14 01:23:42;;;;;;;0.60;0.60;;;;;;;0.44;89.13;98834.00;5084508;28;20031;-68
2022/12/14 01:26:08;;;;;;;0.50;0.50;;;;;;;0.42;89.27;98823.78;5084435;28;20568;-68
2022/12/14 01:28:34;;;;;;;0.60;0.60;;;;;;;0.44;89.17;98813.56;5083879;28;20111;-68
2022/12/14 01:31:14;;;;;;;0.50;0.50;;;;;;;0.47;88.96;98818.69;5088479;28;20071;-68
2022/12/14 01:33:40;;;;;;;0.52;0.52;;;;;;;0.47;88.55;98823.81;5086776;28;20040;-68
2022/12/14 01:36:08;;;;;;;0.65;0.65;;;;;;;0.48;88.61;98810.19;5087011;28;20468;-71
2022/12/14 01:38:34;;;;;;;0.60;0.60;;;;;;;0.52;88.47;98816.16;5088239;28;20119;-68
2022/12/14 01:40:59;;;;;;;0.50;0.50;;;;;;;0.48;88.38;98812.72;5088102;28;20048;-68
2022/12/14 01:43:54;;;;;;;0.65;0.65;;;;;;;0.46;88.16;98805.06;5087871;28;20028;-67
2022/12/14 01:46:22;;;;;;;0.57;0.57;;;;;;;0.47;88.14;98795.72;5088260;28;20028;-68
2022/12/14 01:48:50;;;;;;;0.60;0.60;;;;;;;0.48;88.19;98800.81;5087977;28;20028;-68
2022/12/14 01:51:16;;;;;;;4.88;1.50;;;;;;;0.48;88.16;98808.50;5088009;28;20464;-68
2022/12/14 01:53:42;;;;;;;0.60;0.60;;;;;;;0.52;88.15;98805.94;5088157;28;20048;-68
2022/12/14 01:56:07;;;;;;;0.57;0.57;;;;;;;0.50;88.15;98798.28;5087548;28;20032;-68
2022/12/14 01:58:33;;;;;;;0.60;0.60;;;;;;;0.56;88.19;98797.50;5088102;28;20029;-68
2022/12/14 02:01:00;;;;;;;0.60;0.60;;;;;;;0.57;88.27;98794.94;5087919;28;20028;-68
2022/12/14 02:03:36;;;;;;;0.50;0.50;;;;;;;0.59;88.34;98797.50;5087802;28;20086;-67
2022/12/14 02:06:08;;;;;;;0.50;0.50;;;;;;;0.63;88.28;98796.66;5088038;28;20024;-67
2022/12/14 02:08:34;;;;;;;0.70;0.70;;;;;;;0.65;88.21;98794.97;5087897;28;20032;-67
2022/12/14 02:11:01;;;;;;;0.57;0.57;;;;;;;0.68;88.26;98800.09;5087904;28;20028;-67
2022/12/14 02:13:31;;;;;;;0.60;0.60;;;;;;;0.69;88.18;98793.28;5086389;28;20078;-67
2022/12/14 02:15:56;;;;;;;0.57;0.57;;;;;;;0.70;88.23;98780.50;5087629;28;20078;-67
2022/12/14 02:18:27;;;;;;;0.60;0.60;;;;;;;0.69;88.33;98768.59;5087694;28;20033;-68
2022/12/14 02:21:35;;;;;;;0.70;0.70;;;;;;;0.81;88.39;98777.19;5087333;28;20040;-68
2022/12/14 02:24:15;;;;;;;0.60;0.60;;;;;;;0.82;88.18;98778.88;5087544;28;20273;-68
2022/12/14 02:26:46;;;;;;;0.57;0.57;;;;;;;0.85;88.25;98771.22;5087539;28;20028;-68
2022/12/14 02:29:18;;;;;;;0.60;0.60;;;;;;;0.89;88.27;98769.53;5087533;28;20107;-68
2022/12/14 02:31:55;;;;;;;1.25;1.25;;;;;;;0.92;88.31;98774.66;5087335;28;20029;-68
2022/12/14 02:35:07;;;;;;;0.70;0.70;;;;;;;0.91;88.23;98772.97;5087247;28;20024;-68
2022/12/14 02:37:33;;;;;;;0.70;0.70;;;;;;;0.92;88.13;98769.56;5087331;28;20241;-69
2022/12/14 02:40:23;;;;;;;0.50;0.50;;;;;;;0.89;88.25;98765.31;5086205;28;20024;-68
2022/12/14 02:43:10;;;;;;;0.50;0.50;;;;;;;0.90;88.23;98771.25;5087335;28;20036;-68
2022/12/14 02:45:57;;;;;;;0.60;0.60;;;;;;;0.89;88.20;98767.84;5087162;28;20036;-68
2022/12/14 02:48:31;;;;;;;0.50;0.50;;;;;;;0.91;88.29;98760.19;5086915;28;20429;-68
2022/12/14 02:51:06;;;;;;;0.60;0.60;;;;;;;0.96;88.29;98778.94;5087113;28;20150;-68
2022/12/14 02:53:36;;;;;;;0.50;0.50;;;;;;;0.93;88.29;98767.00;5087016;28;20044;-67
2022/12/14 02:56:07;;;;;;;0.52;0.52;;;;;;;0.88;88.25;98761.00;5086828;28;20032;-68
2022/12/14 02:58:49;;;;;;;0.52;0.52;;;;;;;0.91;88.20;98772.97;5086943;28;20024;-68
2022/12/14 03:01:18;;;;;;;0.60;0.60;;;;;;;0.95;88.13;98769.56;5086728;28;20029;-67
2022/12/14 03:03:43;;;;;;;0.50;0.50;;;;;;;0.95;88.20;98774.69;5086605;28;20028;-67
2022/12/14 03:06:27;;;;;;;0.60;0.60;;;;;;;0.95;87.95;98770.44;5086722;28;20082;-67
2022/12/14 03:09:02;;;;;;;4.15;1.85;;;;;;;0.94;87.85;98765.31;5086805;28;20024;-67
2022/12/14 03:12:07;;;;;;;0.50;0.50;;;;;;;0.92;87.67;98760.19;5086663;28;20058;-67
2022/12/14 03:14:41;;;;;;;0.50;0.50;;;;;;;0.89;87.73;98749.09;5085937;28;20045;-67
2022/12/14 03:17:14;;;;;;;0.50;0.50;;;;;;;0.95;87.59;98757.66;5086513;28;20066;-68
2022/12/14 03:19:48;;;;;;;0.50;0.50;;;;;;;0.94;87.81;98745.72;5086424;28;20017;-67
2022/12/14 03:22:19;;;;;;;0.50;0.50;;;;;;;0.91;87.79;98738.03;5085048;28;20054;-69
2022/12/14 03:24:51;;;;;;;0.50;0.50;;;;;;;0.99;87.84;98749.16;5086345;28;20020;-68
2022/12/14 03:27:23;;;;;;;0.70;0.70;;;;;;;0.97;87.64;98745.75;5086638;28;20044;-68
2022/12/14 03:29:57;;;;;;;0.70;0.70;;;;;;;0.94;87.71;98727.81;5086398;28;20476;-68
2022/12/14 03:32:25;;;;;;;0.75;0.75;;;;;;;0.95;87.59;98736.34;5086459;28;20029;-68
2022/12/14 03:35:00;;;;;;;0.50;0.50;;;;;;;0.97;87.77;98735.53;5086034;28;20016;-68
2022/12/14 03:37:37;;;;;;;0.50;0.50;;;;;;;1.02;87.74;98732.13;5084996;28;20029;-69
2022/12/14 03:40:06;;;;;;;0.50;0.50;;;;;;;0.96;87.59;98728.69;5086049;28;20080;-69
2022/12/14 03:42:57;;;;;;;0.60;0.60;;;;;;;0.98;87.70;98726.13;5085927;28;20029;-69
2022/12/14 03:45:47;;;;;;;0.55;0.55;;;;;;;0.93;87.87;98726.13;5085811;28;20097;-68
2022/12/14 03:48:31;;;;;;;2.83;2.65;;;;;;;0.93;87.86;98721.00;5085612;28;20095;-68
2022/12/14 03:51:12;;;;;;;0.52;0.52;;;;;;;0.93;87.90;98723.56;5085828;28;20025;-68
2022/12/14 03:53:50;;;;;;;0.60;0.60;;;;;;;0.85;87.79;98718.44;5085942;28;20042;-68
2022/12/14 03:56:43;;;;;;;0.50;0.50;;;;;;;0.88;87.96;98715.03;5085839;28;20725;-68
2022/12/14 03:59:16;;;;;;;0.50;0.50;;;;;;;0.91;87.81;98722.69;5085803;28;20112;-69
2022/12/14 04:01:55;;;;;;;0.50;0.50;;;;;;;0.92;88.12;98716.75;5084322;28;20083;-69
2022/12/14 04:04:43;;;;;;;0.50;0.50;;;;;;;0.92;88.29;98703.13;5085434;28;20043;-69
2022/12/14 04:07:11;;;;;;;0.60;0.60;;;;;;;0.93;88.22;98708.25;5085821;28;20105;-68
2022/12/14 04:09:51;;;;;;;0.50;0.50;;;;;;;0.96;88.28;98705.69;5085418;28;20092;-69
2022/12/14 04:21:06;;;;;;;0.50;0.50;;;;;;;0.93;88.37;98695.47;5085427;28;20086;-70
2022/12/14 04:26:44;;;;;;;0.50;0.50;;;;;;;0.94;88.46;98688.66;5085330;28;20492;-70
2022/12/14 04:32:14;;;;;;;0.50;0.50;;;;;;;0.97;88.71;98679.31;5085380;28;20051;-68
2022/12/14 04:34:44;;;;;;;0.50;0.50;;;;;;;0.92;88.77;98665.66;5085210;28;20048;-69
2022/12/14 04:37:15;;;;;;;0.60;0.60;;;;;;;0.99;88.79;98681.88;5085095;28;20392;-69
2022/12/14 04:39:55;;;;;;;0.70;0.70;;;;;;;1.01;88.78;98681.88;5085227;28;20206;-68
2022/12/14 04:42:30;;;;;;;0.50;0.50;;;;;;;1.02;88.96;98678.44;5085111;28;20024;-68
2022/12/14 04:45:02;;;;;;;0.50;0.50;;;;;;;0.99;88.66;98669.91;5083745;28;20024;-68
2022/12/14 04:47:31;;;;;;;;;;;;;;;1.10;88.72;98682.72;5085510;28;20028;-68
2022/12/14 04:50:12;;;;;;;0.50;0.50;;;;;;;1.06;88.67;98687.81;5083547;28;19908;-68
2022/12/14 04:52:51;;;;;;;0.40;0.40;;;;;;;1.03;88.71;98681.00;5085075;28;20028;-70
2022/12/14 04:55:29;;;;;;;1.00;1.00;;;;;;;1.07;88.66;98689.56;5083726;28;20020;-69
2022/12/14 04:58:12;;;;;;;0.60;0.60;;;;;;;1.04;88.61;98672.47;5085064;28;20025;-69
2022/12/14 05:00:51;;;;;;;0.50;0.50;;;;;;;1.07;88.28;98687.00;5084714;28;20048;-69
2022/12/14 05:03:24;;;;;;;0.50;0.50;;;;;;;1.06;88.37;98681.03;5085129;28;20024;-70
2022/12/14 05:06:21;;;;;;;0.50;0.50;;;;;;;1.07;88.38;98671.66;5089108;28;20028;-70
2022/12/14 05:09:02;;;;;;;0.60;0.60;;;;;;;1.11;88.43;98664.00;5088935;28;20031;-69
2022/12/14 05:11:34;;;;;;;0.70;0.70;;;;;;;1.07;88.45;98669.94;5089071;28;20031;-70
2022/12/14 05:14:01;;;;;;;0.50;0.50;;;;;;;1.06;88.30;98662.25;5088902;28;20116;-68
2022/12/14 05:16:28;;;;;;;0.50;0.50;;;;;;;1.11;88.34;98675.91;5088632;28;20028;-69
2022/12/14 05:18:53;;;;;;;0.50;0.50;;;;;;;1.14;88.43;98675.91;5088723;28;20107;-69
2022/12/14 05:24:03;;;;;;;0.50;0.50;;;;;;;1.03;88.54;98662.25;5088887;28;20043;-69
2022/12/14 05:26:30;;;;;;;0.55;0.55;;;;;;;1.12;88.41;98677.59;5088470;28;20071;-70
2022/12/14 05:28:55;;;;;;;0.50;0.50;;;;;;;1.04;88.46;98657.16;5088651;28;20024;-68
2022/12/14 05:31:21;;;;;;;0.50;0.50;;;;;;;1.10;88.25;98671.66;5088555;28;20021;-70
2022/12/14 05:33:47;;;;;;;2.45;2.28;;;;;;;1.08;88.42;98661.44;5088208;28;20498;-70
2022/12/14 05:36:12;;;;;;;0.50;0.50;;;;;;;1.15;88.28;98664.00;5088547;28;20040;-69
2022/12/14 05:38:38;;;;;;;0.50;0.50;;;;;;;1.14;88.05;98659.72;5087646;28;20025;-69
2022/12/14 05:41:03;;;;;;;0.50;0.50;;;;;;;1.09;87.78;98669.94;5088079;28;20364;-69
2022/12/14 05:43:28;;;;;;;0.50;0.50;;;;;;;1.03;87.51;98652.91;5088048;28;20029;-70
2022/12/14 05:45:58;;;;;;;0.50;0.50;;;;;;;1.07;87.63;98652.03;5088193;28;20111;-70
2022/12/14 05:48:24;;;;;;;0.50;0.50;;;;;;;1.05;87.45;98652.91;5088541;28;20031;-71
2022/12/14 05:50:50;;;;;;;0.47;0.47;;;;;;;1.02;87.41;98656.31;5088116;28;20048;-70
2022/12/14 05:53:16;;;;;;;0.50;0.50;;;;;;;1.02;87.11;98648.66;5088244;28;20028;-71
2022/12/14 05:55:48;;;;;;;0.50;0.50;;;;;;;1.02;87.40;98656.31;5088085;28;20021;-71
2022/12/14 05:58:14;;;;;;;0.50;0.50;;;;;;;0.99;87.08;98646.09;5086694;28;20504;-71
2022/12/14 06:00:39;;;;;;;0.57;0.57;;;;;;;0.97;86.93;98643.53;5087639;28;20070;-68
2022/12/14 06:03:05;;;;;;;0.50;0.50;;;;;;;0.96;87.22;98644.34;5088076;28;20021;-70
2022/12/14 06:05:30;;;;;;;0.50;0.50;;;;;;;1.01;87.22;98643.53;5087938;28;20464;-70
2022/12/14 06:07:56;;;;;;;0.50;0.50;;;;;;;0.95;87.36;98636.69;5088214;28;20036;-71
2022/12/14 06:10:22;;;;;;;0.50;0.50;;;;;;;0.99;87.32;98639.25;5088031;28;20042;-71
2022/12/14 06:12:47;;;;;;;0.60;0.60;;;;;;;1.01;87.26;98643.53;5087801;28;20043;-70
2022/12/14 06:15:13;;;;;;;0.50;0.50;;;;;;;0.98;87.38;98637.56;5086406;28;20023;-70
2022/12/14 06:17:44;;;;;;;17.83;5.50;;;;;;;0.93;87.45;98631.56;5087740;28;20030;-71
2022/12/14 06:20:10;;;;;;;0.60;0.60;;;;;;;0.89;87.52;98624.78;5087118;28;20055;-71
2022/12/14 06:22:36;;;;;;;0.50;0.50;;;;;;;1.00;87.51;98635.00;5087579;28;20041;-71
2022/12/14 06:25:02;;;;;;;0.50;0.50;;;;;;;1.02;87.45;98632.44;5086484;28;20035;-72
2022/12/14 06:27:27;;;;;;;0.50;0.50;;;;;;;0.96;87.44;98634.13;5087773;28;20031;-71
2022/12/14 06:29:53;;;;;;;0.50;0.50;;;;;;;0.92;87.25;98619.66;5087600;28;20027;-71
2022/12/14 06:32:18;;;;;;;0.50;0.50;;;;;;;0.94;87.12;98635.81;5087431;28;20031;-72
2022/12/14 06:34:44;;;;;;;0.50;0.50;;;;;;;0.88;86.96;98630.72;5085789;28;20029;-73
2022/12/14 06:37:10;;;;;;;3.30;3.15;;;;;;;0.88;86.96;98623.03;5085702;28;20527;-71
2022/12/14 06:39:35;;;;;;;0.57;0.57;;;;;;;0.88;86.73;98634.97;5085864;28;20024;-72
2022/12/14 06:42:01;;;;;;;0.70;0.70;;;;;;;0.87;86.99;98626.47;5085623;28;20028;-70
2022/12/14 06:44:26;;;;;;;0.50;0.50;;;;;;;0.86;86.57;98629.88;5085968;28;20069;-70
2022/12/14 06:46:51;;;;;;;0.50;0.50;;;;;;;0.85;86.54;98631.56;5084737;28;20025;-71
2022/12/14 06:49:17;;;;;;;0.55;0.55;;;;;;;0.87;86.40;98631.56;5085245;28;20029;-69
2022/12/14 06:51:43;;;;;;;0.50;0.50;;;;;;;0.86;86.54;98634.97;5085925;28;20044;-71
2022/12/14 06:54:10;;;;;;;0.50;0.50;;;;;;;0.81;86.50;98627.31;5085422;28;20024;-70
2022/12/14 06:56:37;;;;;;;0.50;0.50;;;;;;;0.88;86.42;98633.25;5086144;28;20124;-71
2022/12/14 06:59:04;;;;;;;0.50;0.50;;;;;;;0.88;86.44;98638.38;5086490;28;20021;-69
2022/12/14 07:01:29;;;;;;;0.50;0.50;;;;;;;0.86;86.30;98638.38;5085397;28;20561;-71
2022/12/14 07:03:58;;;;;;;0.60;0.60;;;;;;;0.86;86.30;98645.19;5085552;28;20029;-69
2022/12/14 07:06:26;;;;;;;0.50;0.50;;;;;;;0.87;86.36;98649.44;5086313;28;20096;-71
2022/12/14 07:08:54;;;;;;;0.50;0.50;;;;;;;0.85;86.36;98638.38;5084451;28;20024;-71
2022/12/14 07:11:20;;;;;;;0.50;0.50;;;;;;;0.79;86.29;98634.09;5084683;28;20096;-70
2022/12/14 07:13:45;;;;;;;0.50;0.50;;;;;;;0.84;86.41;98640.09;5086260;28;20012;-70
2022/12/14 07:16:15;;;;;;;0.50;0.50;;;;;;;0.82;86.33;98641.78;5085666;28;20097;-70
2022/12/14 07:18:41;;;;;;;0.50;0.50;;;;;;;0.82;86.07;98636.66;5086243;28;20025;-68
2022/12/14 07:21:10;;;;;;;0.50;0.50;;;;;;;0.83;85.73;98642.63;5085838;28;20044;-71
2022/12/14 07:23:37;;;;;;;0.50;0.50;;;;;;;0.83;85.81;98646.03;5085607;28;20024;-71
2022/12/14 07:26:05;;;;;;;0.57;0.57;;;;;;;0.81;85.71;98649.44;5085308;28;20123;-69
2022/12/14 07:28:31;;;;;;;0.50;0.50;;;;;;;0.80;85.51;98661.34;5085708;28;20089;-70
2022/12/14 07:30:58;;;;;;;0.52;0.52;;;;;;;0.77;85.07;98657.94;5085414;28;20024;-71
2022/12/14 07:33:24;;;;;;;0.50;0.50;;;;;;;0.74;85.30;98669.00;5085615;28;20028;-70
2022/12/14 07:35:50;;;;;;;0.50;0.50;;;;;;;0.66;85.29;98665.56;5085090;28;20060;-70
2022/12/14 07:38:16;;;;;;;0.50;0.50;;;;;;;0.60;85.30;98681.72;5118150;28;20024;-70
2022/12/14 07:40:42;;;;;;;0.50;0.50;;;;;;;0.51;85.01;98684.22;5085587;28;20020;-70
2022/12/14 07:43:08;;;;;;;0.50;0.50;;;;;;;0.41;84.96;98691.00;5085634;28;20040;-72
2022/12/14 07:45:33;;;;;;;0.50;0.50;;;;;;;0.31;85.09;98692.63;5085269;28;20025;-71
2022/12/14 07:47:58;;;;;;;0.60;0.60;;;;;;;0.22;85.03;98694.28;5085442;28;20020;-72
2022/12/14 07:50:24;;;;;;;2.05;1.95;;;;;;;0.11;84.88;98708.69;5083909;28;20486;-70
2022/12/14 07:52:49;;;;;;;0.50;0.50;;;;;;;0.07;84.93;98704.41;5084081;28;20035;-71
2022/12/14 07:55:15;;;;;;;0.50;0.50;;;;;;;-0.03;85.15;98706.88;5085442;28;20021;-72
2022/12/14 07:57:40;;;;;;;0.50;0.50;;;;;;;-0.04;85.37;98710.28;5085340;28;20056;-72
2022/12/14 08:00:06;;;;;;;0.50;0.50;;;;;;;-0.14;85.46;98711.06;5085271;28;20492;-71
2022/12/14 08:02:32;;;;;;;0.55;0.55;;;;;;;-0.23;85.28;98713.53;5084891;28;20348;-72
2022/12/14 08:04:57;;;;;;;0.52;0.52;;;;;;;-0.24;84.67;98722.03;5084597;28;20040;-72
2022/12/14 08:07:23;;;;;;;0.73;0.73;;;;;;;-0.29;85.20;98733.03;5084753;28;20024;-72
2022/12/14 08:09:48;;;;;;;0.60;0.60;;;;;;;-0.33;85.25;98726.22;5083541;28;20028;-71
2022/12/14 08:12:13;;;;;;;0.60;0.60;;;;;;;-0.34;85.36;98734.72;5084901;28;20099;-71
2022/12/14 08:14:39;;;;;;;0.60;0.60;;;;;;;-0.45;85.30;98734.63;5085056;28;20027;-71
2022/12/14 08:17:04;;;;;;;0.50;0.50;;;;;;;-0.43;85.20;98735.47;5084748;28;20484;-71
2022/12/14 08:19:29;;;;;;;0.60;0.60;;;;;;;-0.52;85.25;98736.25;5084952;28;20040;-71
2022/12/14 08:21:55;;;;;;;0.50;0.50;;;;;;;-0.61;85.20;98736.16;5084622;28;20040;-71
2022/12/14 08:24:20;;;;;;;0.60;0.60;;;;;;;-0.65;85.10;98742.06;5085102;28;20025;-71
2022/12/14 08:26:46;;;;;;;0.52;0.52;;;;;;;-0.68;85.30;98745.44;5085203;28;20034;-70
2022/12/14 08:29:13;;;;;;;0.50;0.50;;;;;;;-0.80;85.21;98750.41;5085057;28;20016;-70
2022/12/14 08:31:39;;;;;;;0.60;0.60;;;;;;;-0.86;85.05;98748.63;5085059;28;20024;-70
2022/12/14 08:34:05;;;;;;;0.60;0.60;;;;;;;-0.85;84.87;98760.56;5084585;28;20035;-70
2022/12/14 08:36:33;;;;;;;0.60;0.60;;;;;;;-0.90;84.83;98757.97;5084543;28;20099;-70
2022/12/14 08:39:01;;;;;;;0.60;0.60;;;;;;;-0.84;84.91;98743.56;5084018;28;20530;-70
2022/12/14 08:41:27;;;;;;;0.50;0.50;;;;;;;-0.74;85.12;98753.03;5084740;28;20066;-70
2022/12/14 08:43:55;;;;;;;0.60;0.60;;;;;;;-0.70;85.43;98764.94;5084788;28;20051;-71
2022/12/14 08:46:22;;;;;;;0.60;0.60;;;;;;;-0.72;84.65;98751.34;5084741;28;20029;-71
2022/12/14 08:48:49;;;;;;;0.60;0.60;;;;;;;-0.52;85.30;98764.28;5084332;28;20031;-68
2022/12/14 08:51:16;;;;;;;0.60;0.60;;;;;;;-0.53;84.78;98769.38;5084246;28;20032;-70
2022/12/14 08:53:41;;;;;;;0.60;0.60;;;;;;;-0.41;84.55;98758.44;5084542;28;20088;-72
2022/12/14 08:56:10;;;;;;;0.55;0.55;;;;;;;-0.37;84.82;98770.41;5084635;28;20024;-71
2022/12/14 08:58:38;;;;;;;0.50;0.50;;;;;;;-0.29;84.18;98776.41;5084340;28;20021;-71
2022/12/14 09:01:12;;;;;;;0.60;0.60;;;;;;;-0.35;84.17;98770.41;5083946;28;20040;-70
2022/12/14 09:03:41;;;;;;;0.60;0.60;;;;;;;-0.29;83.66;98775.56;5083021;28;20032;-71
2022/12/14 09:06:10;;;;;;;7.53;5.75;;;;;;;-0.32;83.93;98784.00;5084423;28;20048;-71
2022/12/14 09:08:36;;;;;;;0.60;0.60;;;;;;;-0.35;83.38;98784.00;5083172;28;20055;-70
2022/12/14 09:11:03;;;;;;;0.60;0.60;;;;;;;-0.36;83.64;98787.38;5084707;28;20047;-71
2022/12/14 09:13:29;;;;;;;0.60;0.60;;;;;;;-0.34;83.71;98790.81;5084579;28;20376;-71
2022/12/14 09:16:00;;;;;;;0.60;0.60;;;;;;;-0.29;83.65;98789.16;5083142;28;20533;-71
2022/12/14 09:18:26;;;;;;;0.80;0.80;;;;;;;-0.28;83.69;98788.31;5084568;28;20464;-70
2022/12/14 09:20:53;;;;;;;0.60;0.60;;;;;;;-0.24;83.97;98793.44;5084183;28;20189;-69
2022/12/14 09:23:22;;;;;;;0.55;0.55;;;;;;;-0.33;83.92;98794.19;5066483;28;20020;-70
2022/12/14 09:26:21;;;;;;;0.60;0.60;;;;;;;-0.35;83.61;98795.91;5084394;28;20472;-70
2022/12/14 09:28:52;;;;;;;0.50;0.50;;;;;;;-0.45;83.25;98794.94;5080306;28;20116;-71
2022/12/14 09:31:20;;;;;;;0.50;0.50;;;;;;;-0.53;83.14;98794.88;5084041;28;20492;-70
2022/12/14 09:33:46;;;;;;;0.60;0.60;;;;;;;-0.68;82.52;98781.13;5084585;28;20029;-71
2022/12/14 09:36:24;;;;;;;0.60;0.60;;;;;;;-0.54;82.92;98788.91;5083775;28;20051;-71
2022/12/14 09:38:50;;;;;;;0.52;0.52;;;;;;;-0.52;83.22;98800.00;5083923;28;20031;-71
2022/12/14 09:41:43;;;;;;;0.50;0.50;;;;;;;-0.53;83.51;98805.06;5084191;28;20079;-71
2022/12/14 09:44:56;;;;;;;0.50;0.50;;;;;;;-0.57;83.93;98801.63;5082506;28;20028;-70
2022/12/14 09:47:40;;;;;;;0.60;0.60;;;;;;;-0.62;83.10;98805.81;5061818;28;20029;-71
2022/12/14 09:50:26;;;;;;;0.50;0.50;;;;;;;-0.61;82.63;98810.09;5046571;28;20041;-70
2022/12/14 09:53:05;;;;;;;0.50;0.50;;;;;;;-0.63;83.02;98806.66;5065027;28;20155;-70
2022/12/14 09:55:40;;;;;;;0.55;0.55;;;;;;;-0.65;83.39;98814.28;5065242;28;20615;-70
2022/12/14 09:58:22;;;;;;;0.60;0.60;;;;;;;-0.65;82.94;98819.38;5048339;28;20029;-70
2022/12/14 10:01:18;;;;;;;0.50;0.50;;;;;;;-0.66;83.05;98830.44;5064832;28;20029;-71
2022/12/14 10:03:52;;;;;;;0.40;0.40;;;;;;;-0.73;82.59;98827.75;5065125;28;20032;-71
2022/12/14 10:06:26;;;;;;;0.60;0.60;;;;;;;-0.76;82.34;98820.94;5047961;28;20047;-70
2022/12/14 10:09:19;;;;;;;3.63;3.42;;;;;;;-0.78;82.45;98828.56;5065076;28;20033;-70
2022/12/14 10:12:05;;;;;;;0.60;0.60;;;;;;;-0.79;82.61;98838.75;5065113;28;20093;-69
2022/12/14 10:14:37;;;;;;;0.60;0.60;;;;;;;-0.85;82.77;98831.91;5064676;28;20431;-70
2022/12/14 10:17:34;;;;;;;0.70;0.70;;;;;;;-0.83;82.55;98835.31;5064912;28;20055;-70
2022/12/14 10:20:11;;;;;;;0.60;0.60;;;;;;;-0.89;82.86;98840.31;5039853;28;20107;-70
2022/12/14 10:22:43;;;;;;;0.60;0.60;;;;;;;-0.92;81.86;98841.16;5087137;28;20059;-71
2022/12/14 10:25:23;;;;;;;0.70;0.70;;;;;;;-0.93;81.88;98838.59;5087452;28;20610;-70
2022/12/14 10:28:15;;;;;;;0.60;0.60;;;;;;;-0.95;82.11;98846.22;5087207;28;20032;-70
2022/12/14 10:30:41;;;;;;;0.60;0.60;;;;;;;-0.90;81.72;98846.28;5087314;28;20025;-71
2022/12/14 10:33:23;;;;;;;0.60;0.60;;;;;;;-1.00;81.37;98848.69;5086756;28;20085;-71
2022/12/14 10:35:49;;;;;;;0.60;0.60;;;;;;;-0.94;81.16;98852.16;5086547;28;20372;-71
2022/12/14 10:38:38;;;;;;;0.60;0.60;;;;;;;-0.99;81.32;98852.06;5086918;28;20020;-70
2022/12/14 10:41:07;;;;;;;0.50;0.50;;;;;;;-0.89;81.59;98850.50;5086570;28;20029;-71
2022/12/14 10:43:51;;;;;;;0.60;0.60;;;;;;;-0.84;81.62;98853.13;5086827;28;20040;-69
2022/12/14 10:46:19;;;;;;;0.60;0.60;;;;;;;-0.80;82.08;98865.09;5087006;28;20020;-71
2022/12/14 10:49:26;;;;;;;0.50;0.50;;;;;;;-0.83;81.58;98870.97;5085310;28;20489;-70
2022/12/14 10:52:07;;;;;;;0.50;0.50;;;;;;;-0.79;80.73;98860.00;5064243;28;20051;-70
2022/12/14 10:54:37;;;;;;;0.50;0.50;;;;;;;-0.57;81.71;98857.72;5064226;28;20144;-71
2022/12/14 10:57:03;;;;;;;0.50;0.50;;;;;;;-0.49;81.69;98855.25;5063799;28;20040;-71
2022/12/14 10:59:36;;;;;;;0.50;0.50;;;;;;;-0.43;81.27;98862.97;5063970;28;20045;-70
2022/12/14 11:02:11;;;;;;;0.60;0.60;;;;;;;-0.43;80.58;98862.97;5045998;28;20031;-70
2022/12/14 11:04:58;;;;;;;0.55;0.55;;;;;;;-0.21;81.23;98870.00;5063642;28;20033;-71
2022/12/14 11:07:33;;;;;;;0.60;0.60;;;;;;;0.11;80.51;98870.31;5063782;28;20041;-71
2022/12/14 11:10:19;;;;;;;0.50;0.50;;;;;;;0.59;79.49;98869.84;5063801;28;20028;-71
2022/12/14 11:13:02;;;;;;;0.50;0.50;;;;;;;1.07;78.19;98853.13;5063994;28;20029;-71
2022/12/14 11:15:39;;;;;;;0.50;0.50;;;;;;;1.92;75.80;98873.03;5063114;28;20021;-70
2022/12/14 11:18:10;;;;;;;0.50;0.50;;;;;;;2.00;74.00;98872.22;5063847;28;20033;-71
2022/12/14 11:20:48;;;;;;;0.70;0.70;;;;;;;1.50;73.23;98874.63;5063375;28;20032;-69
2022/12/14 11:23:38;;;;;;;0.60;0.60;;;;;;;0.99;72.61;98883.75;5063531;28;20029;-72
2022/12/14 11:26:14;;;;;;;0.60;0.60;;;;;;;0.68;74.62;98889.50;5064339;28;20044;-73
2022/12/14 11:28:48;;;;;;;0.50;0.50;;;;;;;0.83;74.52;98888.75;5086083;28;20035;-73
2022/12/14 11:31:21;;;;;;;0.60;0.60;;;;;;;0.88;73.75;98886.22;5085592;28;20062;-71
2022/12/14 11:33:50;;;;;;;0.60;0.60;;;;;;;0.85;75.29;98886.22;5086000;28;20023;-72
2022/12/14 11:36:42;;;;;;;0.60;0.60;;;;;;;0.79;75.39;98897.25;5085956;28;20027;-71
2022/12/14 11:39:13;;;;;;;0.70;0.70;;;;;;;0.59;75.18;98892.84;5084517;28;20036;-70
2022/12/14 11:42:01;;;;;;;0.68;0.68;;;;;;;0.79;75.93;98897.25;5085792;28;20020;-71
2022/12/14 11:44:32;;;;;;;0.50;0.50;;;;;;;0.80;75.96;98901.50;5085456;28;20024;-71
2022/12/14 11:46:57;;;;;;;0.50;0.50;;;;;;;0.61;74.71;98908.16;5085905;28;20020;-71
2022/12/14 11:49:34;;;;;;;0.52;0.52;;;;;;;0.43;74.10;98912.28;5085457;28;20115;-71
2022/12/14 11:52:18;;;;;;;0.50;0.50;;;;;;;0.22;74.34;98907.84;5085550;28;20032;-71
2022/12/14 11:54:46;;;;;;;0.60;0.60;;;;;;;0.07;75.23;98916.19;5084080;28;20020;-71
2022/12/14 11:57:12;;;;;;;0.60;0.60;;;;;;;-0.09;75.08;98908.41;5083908;28;20027;-71
2022/12/14 11:59:49;;;;;;;0.60;0.60;;;;;;;-0.28;74.63;98927.75;5084157;28;20089;-71
2022/12/14 12:02:36;;;;;;;0.60;0.60;;;;;;;-0.49;75.01;98926.63;5084976;28;20063;-71
2022/12/14 12:05:10;;;;;;;0.60;0.60;;;;;;;-0.55;74.64;98927.44;5085082;28;20028;-70
2022/12/14 12:07:39;;;;;;;0.50;0.50;;;;;;;-0.81;73.09;98922.81;5083607;28;20020;-71
2022/12/14 12:10:26;;;;;;;0.50;0.50;;;;;;;-0.88;73.56;98924.44;5085135;28;20028;-70
2022/12/14 12:12:59;;;;;;;0.50;0.50;;;;;;;-1.02;74.15;98916.59;5085093;28;20051;-70
2022/12/14 12:15:34;;;;;;;0.60;0.60;;;;;;;-1.09;73.52;98930.09;5085113;28;20024;-70
2022/12/14 12:18:19;;;;;;;0.60;0.60;;;;;;;-1.21;71.87;98922.22;5083573;28;20048;-71